Beldenville, Wisconsin
Current Conditions -  °F | °C
As of 11:11 AM on Sunday 23 Nov 2014 (Local Time) from K21D Reporting Station
Moderate Fog Moderate Fog  
Wind Chill: 46°   Ceiling: 300
Heat Index: 46°   Visibility: 0mi
Dew Point: 46°   Wind: 0mph
Humidity: 100%   Direction: NA
Pressure: 29.44"   Gusts: NA
Location:  44.77°N, 92.51°W
Report Text: K21D 231711Z AUTO 00000KT M1/4SM FG OVC003 08/08 A2944 RMK AO2
Loading
Personal Weather Stations






























Interactive Weather Map New forecast layout! Learn more

10-Day Weather Forecast

Advertisements
Track Severe Weather on mobile